LROP Airport Information

Runway Information
Runway 08L Length 11484 ft width 148 ft
Elevation 313 ft Threshold 0 ft Heading 84
Runway 26R Length 11484 ft Width 148 ft
Elevation 303 ft Threshold 0 ft Heading 264
Runway 08R Length 11484 ft width 148 ft
Elevation 314 ft Threshold 0 ft Heading 84
Runway 26L Length 11484 ft Width 148 ft
Elevation 303 ft Threshold 0 ft Heading 264
Airport Frequencies
Type APP Name BUCURESTI Frequency 118.25 MHZ
Type ATIS Name OTOPENI AT Frequency 118.5 MHZ
Type GND Name OTOPENI GN Frequency 121.7 MHZ
Type TWR Name OTOPENI TW Frequency 120.9 MHZ
Airport Navaids
Type VOR-DME Name Floresti Frequency 112200 KHZ
Type NDB Name Otopeni Frequency 349 KHZ
Type NDB Name Otopeni Frequency 268 KHZ
Type NDB Name Otopeni Frequency 370 KHZ
Type VOR-DME Name Strejnic Frequency 113200 KHZ
Airport Weather Information & NOTAM
ADDS - METARS form results

(2310 UTC 18 June 2018)
 
METAR text: LROP 182300Z 34006KT 9999 FEW050CB 19/18 Q1014 R08R/29//95 NOSIG
Conditions at: LROP (BUCHAREST/OTOPEN, RO) observed 2300 UTC 18 June 2018
Temperature: 19.0°C (66°F)
Dewpoint: 18.0°C (64°F) [RH = 94%]
Pressure (altimeter): 29.94 inches Hg (1014.0 mb)
Winds: from the NNW (340 degrees) at 7 MPH (6 knots; 3.1 m/s)
Visibility: 6 or more miles (10+ km)
Ceiling: at least 12,000 feet AGL
Clouds: few clouds at 5000 feet AGL
Weather: no significant weather observed at this time

METAR text: LROP 182230Z 32004KT 9999 -SHRA SCT050CB 19/18 Q1013 R08R/29//95 NOSIG
Conditions at: LROP (BUCHAREST/OTOPEN, RO) observed 2230 UTC 18 June 2018
Temperature: 19.0°C (66°F)
Dewpoint: 18.0°C (64°F) [RH = 94%]
Pressure (altimeter): 29.91 inches Hg (1013.0 mb)
Winds: from the NW (320 degrees) at 5 MPH (4 knots; 2.1 m/s)
Visibility: 6 or more miles (10+ km)
Ceiling: at least 12,000 feet AGL
Clouds: scattered clouds at 5000 feet AGL
Weather: -SHRA  (light rain showers)